Aviation Digital Data Service (ADDS)

Output produced by METARs form (2256 UTC 20 January 2019)
found at http://www.aviationweather.gov/metar/data/
 
Forecast for: EDLW (DORTMUND/WICKEDE, DE)
Text: TAF EDLW 201700Z 2018/2118 VRB03KT CAVOK
Forecast period: 1800 UTC 20 January 2019 to 0800 UTC 21 January 2019
Forecast type: FROM: standard forecast or significant change
Winds: variable direction winds at 3 MPH (3 knots; 1.5 m/s)
Visibility: 6 or more miles 10+ km)
Ceiling: unknown
Clouds: missing
Weather: NSW  (no significant weather)
Text: BECMG 2108/2111 22005KT
Forecast period: 0800 to 1800 UTC 21 January 2019
Forecast type: BECOMING: Conditions expected to become as follows by 1100 UTC 21 January 2019
Winds: from the SW (220 degrees) at 6 MPH (5 knots; 2.6 m/s)
Visibility: 6 or more miles 10+ km)
Ceiling: unknown
Clouds: missing
Weather: NSW  (no significant weather)